Time;durP1;ratioP1;P1;durP2;ratioP2;P2;SDS_P1;SDS_P2;PMS_P1;PMS_P2;Temp;Humidity;BMP_temperature;BMP_pressure;BME280_temperature;BME280_humidity;BME280_pressure;Samples;Min_cycle;Max_cycle;Signal;HPM_P1;HPM_P2
2023/09/14 00:00:13;;;;;;;7.63;2.77;;;;;;;;;;5025947;28;20268;-72
2023/09/14 00:02:38;;;;;;;7.90;2.67;;;;;;;;;;5025732;28;20363;-71
2023/09/14 00:05:04;;;;;;;6.55;2.80;;;;;;;;;;5026775;28;21382;-71
2023/09/14 00:07:29;;;;;;;11.77;2.42;;;;;;;;;;5026900;28;20022;-71
2023/09/14 00:09:54;;;;;;;9.03;2.43;;;;;;;;;;5026938;28;20017;-71
2023/09/14 00:12:20;;;;;;;7.93;2.10;;;;;;;;;;5026212;28;21017;-71
2023/09/14 00:14:45;;;;;;;7.10;3.10;;;;;;;;;;5027879;28;20583;-71
2023/09/14 00:17:10;;;;;;;9.73;2.93;;;;;;;;;;5026577;28;20272;-71
2023/09/14 00:19:35;;;;;;;17.73;2.83;;;;;;;;;;5028815;28;20275;-71
2023/09/14 00:22:00;;;;;;;16.93;3.80;;;;;;;;;;5024968;28;20306;-71
2023/09/14 00:24:25;;;;;;;12.47;3.17;;;;;;;;;;5027672;28;20284;-71
2023/09/14 00:26:51;;;;;;;13.83;3.47;;;;;;;;;;5024676;28;20749;-71
2023/09/14 00:29:16;;;;;;;16.65;3.63;;;;;;;;;;5028325;28;20294;-71
2023/09/14 00:31:41;;;;;;;8.13;3.23;;;;;;;;;;5025334;28;20029;-71
2023/09/14 00:34:06;;;;;;;8.03;3.00;;;;;;;;;;5024665;28;20308;-71
2023/09/14 00:36:31;;;;;;;15.53;3.17;;;;;;;;;;5027395;28;20334;-71
2023/09/14 00:38:56;;;;;;;8.87;3.73;;;;;;;;;;5027394;28;20630;-71
2023/09/14 00:41:22;;;;;;;13.57;4.13;;;;;;;;;;5026041;28;20291;-71
2023/09/14 00:43:47;;;;;;;13.80;3.17;;;;;;;;;;5024594;28;20355;-71
2023/09/14 00:46:12;;;;;;;10.50;3.37;;;;;;;;;;5028744;28;20626;-71
2023/09/14 00:48:38;;;;;;;10.82;3.58;;;;;;;;;;5026660;28;20276;-71
2023/09/14 00:51:06;;;;;;;15.88;3.40;;;;;;;;;;5025556;28;20041;-71
2023/09/14 00:53:31;;;;;;;8.52;3.28;;;;;;;;;;5022069;28;20030;-71
2023/09/14 00:55:57;;;;;;;8.35;3.20;;;;;;;;;;5019746;28;20075;-71
2023/09/14 00:58:22;;;;;;;8.80;3.28;;;;;;;;;;5023425;28;20013;-71
2023/09/14 01:00:48;;;;;;;9.60;2.80;;;;;;;;;;5026429;28;20038;-71
2023/09/14 01:03:14;;;;;;;10.30;3.10;;;;;;;;;;5025086;28;21857;-71
2023/09/14 01:05:39;;;;;;;7.20;2.70;;;;;;;;;;5025555;28;20107;-72
2023/09/14 01:08:05;;;;;;;8.43;2.95;;;;;;;;;;5029269;28;20156;-71
2023/09/14 01:10:30;;;;;;;9.85;2.30;;;;;;;;;;5026801;28;20022;-71
2023/09/14 01:12:56;;;;;;;9.73;2.47;;;;;;;;;;5017972;28;20045;-71
2023/09/14 01:15:26;;;;;;;6.05;2.70;;;;;;;;;;5023492;28;20347;-71
2023/09/14 01:18:13;;;;;;;8.52;3.42;;;;;;;;;;5028904;28;20049;-71
2023/09/14 01:20:46;;;;;;;11.32;2.35;;;;;;;;;;5018050;28;20018;-71
2023/09/14 01:23:30;;;;;;;9.23;2.75;;;;;;;;;;5031117;28;20468;-71
2023/09/14 01:25:55;;;;;;;7.90;2.50;;;;;;;;;;5028148;28;20021;-71
2023/09/14 01:28:20;;;;;;;6.65;2.40;;;;;;;;;;5023377;28;20087;-71
2023/09/14 01:30:45;;;;;;;8.88;2.30;;;;;;;;;;5022844;28;20096;-71
2023/09/14 01:33:12;;;;;;;9.20;3.03;;;;;;;;;;5027670;28;20471;-71
2023/09/14 01:35:40;;;;;;;6.93;2.58;;;;;;;;;;5027256;28;20450;-71
2023/09/14 01:38:06;;;;;;;5.93;2.83;;;;;;;;;;5029217;28;20024;-71
2023/09/14 01:40:32;;;;;;;20.58;3.10;;;;;;;;;;5020931;28;20029;-71
2023/09/14 01:42:58;;;;;;;10.60;2.72;;;;;;;;;;5024762;28;20049;-71
2023/09/14 01:45:23;;;;;;;10.38;2.67;;;;;;;;;;5020342;28;20037;-71
2023/09/14 01:47:52;;;;;;;8.70;2.67;;;;;;;;;;5020583;28;20076;-71
2023/09/14 01:50:17;;;;;;;11.02;2.85;;;;;;;;;;5027355;28;20049;-71
2023/09/14 01:52:42;;;;;;;8.65;2.55;;;;;;;;;;5029596;28;20343;-71
2023/09/14 01:55:08;;;;;;;13.32;3.03;;;;;;;;;;5021510;28;20032;-71
2023/09/14 01:57:33;;;;;;;12.35;2.50;;;;;;;;;;5024168;28;20032;-71
2023/09/14 01:59:59;;;;;;;6.38;2.75;;;;;;;;;;5029724;28;20026;-71
2023/09/14 02:02:25;;;;;;;13.50;3.67;;;;;;;;;;5027012;28;20032;-71
2023/09/14 02:04:50;;;;;;;9.13;2.63;;;;;;;;;;5025920;28;20614;-71
2023/09/14 02:07:15;;;;;;;9.70;2.43;;;;;;;;;;5021350;28;20034;-71
2023/09/14 02:09:41;;;;;;;13.43;2.20;;;;;;;;;;5021645;28;20359;-71
2023/09/14 02:12:06;;;;;;;6.88;2.50;;;;;;;;;;5021388;28;20611;-71
2023/09/14 02:14:31;;;;;;;4.70;2.60;;;;;;;;;;5022667;28;20396;-71
2023/09/14 02:16:56;;;;;;;10.05;2.70;;;;;;;;;;5021938;28;20020;-71
2023/09/14 02:19:21;;;;;;;6.83;2.80;;;;;;;;;;5020983;28;20491;-71
2023/09/14 02:21:47;;;;;;;11.80;2.10;;;;;;;;;;5021078;28;20802;-71
2023/09/14 02:24:12;;;;;;;7.07;2.78;;;;;;;;;;5023395;28;20446;-71
2023/09/14 02:26:37;;;;;;;6.17;2.47;;;;;;;;;;5023245;28;20087;-71
2023/09/14 02:29:03;;;;;;;9.07;3.07;;;;;;;;;;5020776;28;20275;-71
2023/09/14 02:31:28;;;;;;;10.65;2.58;;;;;;;;;;5019780;28;20272;-71
2023/09/14 02:33:53;;;;;;;14.27;2.80;;;;;;;;;;5023872;28;20532;-71
2023/09/14 02:36:19;;;;;;;9.43;3.73;;;;;;;;;;5022161;28;20036;-71
2023/09/14 02:38:45;;;;;;;18.40;3.17;;;;;;;;;;5020797;28;20272;-71
2023/09/14 02:41:11;;;;;;;12.82;2.83;;;;;;;;;;5020939;28;20389;-71
2023/09/14 02:43:36;;;;;;;11.13;2.43;;;;;;;;;;5023287;28;20040;-71
2023/09/14 02:46:01;;;;;;;16.20;2.97;;;;;;;;;;5019874;28;20659;-71
2023/09/14 02:48:26;;;;;;;10.45;2.60;;;;;;;;;;5021796;28;20298;-71
2023/09/14 02:50:51;;;;;;;12.97;3.67;;;;;;;;;;5023387;28;20024;-71
2023/09/14 02:53:16;;;;;;;12.35;2.70;;;;;;;;;;5020818;28;20437;-71
2023/09/14 02:55:42;;;;;;;7.45;2.60;;;;;;;;;;5023768;28;20403;-71
2023/09/14 02:58:08;;;;;;;9.68;3.20;;;;;;;;;;5023093;28;20080;-71
2023/09/14 03:00:33;;;;;;;7.90;2.67;;;;;;;;;;5019787;28;20554;-71
2023/09/14 03:02:59;;;;;;;13.02;2.63;;;;;;;;;;5023118;28;20033;-71
2023/09/14 03:05:24;;;;;;;14.67;2.70;;;;;;;;;;5022730;28;20040;-71
2023/09/14 03:07:49;;;;;;;7.20;3.10;;;;;;;;;;5022966;28;20276;-71
2023/09/14 03:10:15;;;;;;;8.27;3.22;;;;;;;;;;5021058;28;20263;-71
2023/09/14 03:12:40;;;;;;;7.28;2.80;;;;;;;;;;5020033;28;20032;-71
2023/09/14 03:15:05;;;;;;;5.37;2.57;;;;;;;;;;5022339;28;20108;-71
2023/09/14 03:17:31;;;;;;;7.05;2.67;;;;;;;;;;5023848;28;20268;-71
2023/09/14 03:19:56;;;;;;;11.10;3.00;;;;;;;;;;5022061;28;20051;-71
2023/09/14 03:22:21;;;;;;;15.23;3.40;;;;;;;;;;5021008;28;20017;-71
2023/09/14 03:24:46;;;;;;;12.07;3.75;;;;;;;;;;5021203;28;20272;-71
2023/09/14 03:27:11;;;;;;;11.00;3.25;;;;;;;;;;5019922;28;20193;-71
2023/09/14 03:29:36;;;;;;;7.20;3.37;;;;;;;;;;5023849;28;20464;-71
2023/09/14 03:32:02;;;;;;;5.63;2.60;;;;;;;;;;5022645;28;20275;-71
2023/09/14 03:34:27;;;;;;;10.82;3.45;;;;;;;;;;5020272;28;20382;-71
2023/09/14 03:36:52;;;;;;;10.87;2.63;;;;;;;;;;5017075;28;20033;-71
2023/09/14 03:39:17;;;;;;;10.25;3.40;;;;;;;;;;5021606;28;20686;-71
2023/09/14 03:41:42;;;;;;;15.13;3.00;;;;;;;;;;5022989;28;20061;-71
2023/09/14 03:44:08;;;;;;;5.95;3.00;;;;;;;;;;5023452;28;20268;-71
2023/09/14 03:46:33;;;;;;;10.73;3.03;;;;;;;;;;5020094;28;20619;-71
2023/09/14 03:48:58;;;;;;;10.40;2.90;;;;;;;;;;5021685;28;20264;-71
2023/09/14 03:51:23;;;;;;;12.60;3.40;;;;;;;;;;5021270;28;20025;-71
2023/09/14 03:53:48;;;;;;;7.45;2.75;;;;;;;;;;5021928;28;20366;-71
2023/09/14 03:56:14;;;;;;;13.43;3.30;;;;;;;;;;5020968;28;20036;-71
2023/09/14 03:58:39;;;;;;;5.70;2.95;;;;;;;;;;5025659;28;20284;-71
2023/09/14 04:01:04;;;;;;;8.80;3.30;;;;;;;;;;5024064;28;20017;-71
2023/09/14 04:03:29;;;;;;;11.43;3.35;;;;;;;;;;5025885;28;20104;-71
2023/09/14 04:05:55;;;;;;;10.37;4.00;;;;;;;;;;5022753;28;20040;-71
2023/09/14 04:08:22;;;;;;;10.55;3.13;;;;;;;;;;5039514;28;20355;-71
2023/09/14 04:10:50;;;;;;;7.93;3.47;;;;;;;;;;5025293;28;20156;-71
2023/09/14 04:13:26;;;;;;;11.82;3.60;;;;;;;;;;5025476;28;20480;-71
2023/09/14 04:15:51;;;;;;;13.07;4.10;;;;;;;;;;5024284;28;20041;-71
2023/09/14 04:18:17;;;;;;;14.03;3.50;;;;;;;;;;5024953;28;20019;-71
2023/09/14 04:20:43;;;;;;;9.85;3.28;;;;;;;;;;5025368;28;20275;-71
2023/09/14 04:23:08;;;;;;;6.97;3.70;;;;;;;;;;5024671;28;20385;-71
2023/09/14 04:25:33;;;;;;;8.60;4.15;;;;;;;;;;5026419;28;20021;-71
2023/09/14 04:27:58;;;;;;;15.17;4.17;;;;;;;;;;5025610;28;20384;-71
2023/09/14 04:30:23;;;;;;;12.17;3.53;;;;;;;;;;5023868;28;20276;-71
2023/09/14 04:32:49;;;;;;;10.70;3.63;;;;;;;;;;5022314;28;20827;-71
2023/09/14 04:35:14;;;;;;;12.35;3.55;;;;;;;;;;5021386;28;20264;-71
2023/09/14 04:37:39;;;;;;;13.77;3.83;;;;;;;;;;5023505;28;20013;-71
2023/09/14 04:40:08;;;;;;;8.70;3.55;;;;;;;;;;5026175;28;20351;-71
2023/09/14 04:42:34;;;;;;;10.23;4.45;;;;;;;;;;5025227;28;20036;-71
2023/09/14 04:44:59;;;;;;;11.98;3.63;;;;;;;;;;5022865;28;20026;-71
2023/09/14 04:47:24;;;;;;;11.77;4.00;;;;;;;;;;5026622;28;20044;-71
2023/09/14 04:49:49;;;;;;;9.75;3.88;;;;;;;;;;5025166;28;20280;-71
2023/09/14 04:52:14;;;;;;;17.27;4.57;;;;;;;;;;5024761;28;20396;-71
2023/09/14 04:54:40;;;;;;;11.90;4.13;;;;;;;;;;5023842;28;20272;-71
2023/09/14 04:57:05;;;;;;;17.02;4.65;;;;;;;;;;5024783;28;20824;-71
2023/09/14 04:59:30;;;;;;;11.37;4.97;;;;;;;;;;5025854;28;20064;-71
2023/09/14 05:01:55;;;;;;;11.30;4.33;;;;;;;;;;5024088;28;20569;-71
2023/09/14 05:04:20;;;;;;;11.27;4.80;;;;;;;;;;5025284;28;20637;-71
2023/09/14 05:06:45;;;;;;;10.70;4.20;;;;;;;;;;5022927;28;20845;-71
2023/09/14 05:09:11;;;;;;;15.13;5.03;;;;;;;;;;5024080;28;20256;-71
2023/09/14 05:11:36;;;;;;;17.50;4.17;;;;;;;;;;5021848;28;20033;-71
2023/09/14 05:14:01;;;;;;;10.73;4.13;;;;;;;;;;5024360;28;20695;-71
2023/09/14 05:16:27;;;;;;;12.40;4.47;;;;;;;;;;5024118;28;20305;-71
2023/09/14 05:18:52;;;;;;;14.53;4.60;;;;;;;;;;5022788;28;20117;-71
2023/09/14 05:21:17;;;;;;;13.37;3.93;;;;;;;;;;5024109;28;20275;-71
2023/09/14 05:23:42;;;;;;;9.88;4.40;;;;;;;;;;5025275;28;20268;-71
2023/09/14 05:26:08;;;;;;;9.50;4.07;;;;;;;;;;5022754;28;20060;-71
2023/09/14 05:28:33;;;;;;;14.85;4.72;;;;;;;;;;5020702;28;20665;-71
2023/09/14 05:30:58;;;;;;;18.37;4.40;;;;;;;;;;5025504;28;20021;-71
2023/09/14 05:33:23;;;;;;;8.40;4.22;;;;;;;;;;5023316;28;20267;-71
2023/09/14 05:35:50;;;;;;;18.52;5.18;;;;;;;;;;5022456;28;20033;-71
2023/09/14 05:38:16;;;;;;;9.20;5.00;;;;;;;;;;5022958;28;20103;-71
2023/09/14 05:40:41;;;;;;;17.00;4.50;;;;;;;;;;5022286;28;20029;-71
2023/09/14 05:43:06;;;;;;;14.25;6.40;;;;;;;;;;5022158;28;20017;-71
2023/09/14 05:45:32;;;;;;;13.97;5.37;;;;;;;;;;5019816;28;20022;-71
2023/09/14 05:47:57;;;;;;;10.33;4.63;;;;;;;;;;5019747;28;20893;-71
2023/09/14 05:50:22;;;;;;;12.60;5.10;;;;;;;;;;5023075;28;20272;-71
2023/09/14 05:52:47;;;;;;;15.07;5.25;;;;;;;;;;5022333;28;20742;-71
2023/09/14 05:55:12;;;;;;;9.60;4.97;;;;;;;;;;5019837;28;20025;-71
2023/09/14 05:57:38;;;;;;;10.07;4.53;;;;;;;;;;5020641;28;20039;-71
2023/09/14 06:00:12;;;;;;;15.82;4.95;;;;;;;;;;5021170;28;20642;-71
2023/09/14 06:02:38;;;;;;;9.15;4.57;;;;;;;;;;5018739;28;20013;-71
2023/09/14 06:05:03;;;;;;;12.50;4.38;;;;;;;;;;5021971;28;20021;-71
2023/09/14 06:07:28;;;;;;;12.98;4.75;;;;;;;;;;5024155;28;20021;-71
2023/09/14 06:09:53;;;;;;;10.77;4.47;;;;;;;;;;5022558;28;20030;-71
2023/09/14 06:12:19;;;;;;;14.53;5.60;;;;;;;;;;5023067;28;20029;-71
2023/09/14 06:14:44;;;;;;;21.95;6.30;;;;;;;;;;5020512;28;20401;-71
2023/09/14 06:17:09;;;;;;;11.30;5.13;;;;;;;;;;5022509;28;20060;-71
2023/09/14 06:19:35;;;;;;;9.23;4.63;;;;;;;;;;5022516;28;20272;-71
2023/09/14 06:22:00;;;;;;;9.70;4.10;;;;;;;;;;5027052;28;20779;-71
2023/09/14 06:24:25;;;;;;;11.27;4.27;;;;;;;;;;5025611;28;20327;-71
2023/09/14 06:26:50;;;;;;;14.67;5.13;;;;;;;;;;5025801;28;20260;-71
2023/09/14 06:29:16;;;;;;;12.50;4.93;;;;;;;;;;5026221;28;20275;-71
2023/09/14 06:31:42;;;;;;;13.23;5.45;;;;;;;;;;5023074;28;20068;-71
2023/09/14 06:34:07;;;;;;;13.40;5.38;;;;;;;;;;5023976;28;20029;-71
2023/09/14 06:36:32;;;;;;;12.88;4.47;;;;;;;;;;5021067;28;20017;-71
2023/09/14 06:38:58;;;;;;;13.32;5.40;;;;;;;;;;5025413;28;20079;-71
2023/09/14 06:41:23;;;;;;;11.32;5.18;;;;;;;;;;5025697;28;20140;-71
2023/09/14 06:43:48;;;;;;;8.67;4.87;;;;;;;;;;5030294;28;20025;-71
2023/09/14 06:46:14;;;;;;;12.77;4.50;;;;;;;;;;5031777;28;20272;-71
2023/09/14 06:48:39;;;;;;;13.55;5.53;;;;;;;;;;5037473;28;20276;-71
2023/09/14 06:51:05;;;;;;;11.27;4.75;;;;;;;;;;5027453;28;20013;-71
2023/09/14 06:53:31;;;;;;;9.07;4.90;;;;;;;;;;5023801;28;20036;-71
2023/09/14 06:55:56;;;;;;;9.82;4.22;;;;;;;;;;5021473;28;20021;-71
2023/09/14 06:58:21;;;;;;;11.17;3.83;;;;;;;;;;5023696;28;20078;-72
2023/09/14 07:00:46;;;;;;;9.33;3.67;;;;;;;;;;5022809;28;20306;-72
2023/09/14 07:03:11;;;;;;;11.10;3.55;;;;;;;;;;5030454;28;20283;-72
2023/09/14 07:05:37;;;;;;;16.87;3.80;;;;;;;;;;5028430;28;20025;-72
2023/09/14 07:08:02;;;;;;;9.07;3.97;;;;;;;;;;5033108;28;20275;-72
2023/09/14 07:10:28;;;;;;;9.50;3.58;;;;;;;;;;5029244;28;20383;-72
2023/09/14 07:12:53;;;;;;;5.03;3.47;;;;;;;;;;5026747;28;20025;-72
2023/09/14 07:15:18;;;;;;;15.97;3.60;;;;;;;;;;5030948;28;20021;-72
2023/09/14 07:17:43;;;;;;;7.73;3.70;;;;;;;;;;5026507;28;20029;-71
2023/09/14 07:20:09;;;;;;;9.13;3.78;;;;;;;;;;5031827;28;20498;-71
2023/09/14 07:22:34;;;;;;;8.77;3.88;;;;;;;;;;5030799;28;20013;-71
2023/09/14 07:25:00;;;;;;;9.67;4.20;;;;;;;;;;5030543;28;20063;-71
2023/09/14 07:27:25;;;;;;;8.97;4.00;;;;;;;;;;5037201;28;20275;-71
2023/09/14 07:29:50;;;;;;;11.02;4.05;;;;;;;;;;5031223;28;20264;-71
2023/09/14 07:32:15;;;;;;;11.50;4.32;;;;;;;;;;5034238;28;20029;-71
2023/09/14 07:34:41;;;;;;;8.17;4.63;;;;;;;;;;5027985;28;20400;-71
2023/09/14 07:37:06;;;;;;;8.80;4.10;;;;;;;;;;5035126;28;20279;-71
2023/09/14 07:39:31;;;;;;;8.70;4.43;;;;;;;;;;5035740;28;20059;-71
2023/09/14 07:41:56;;;;;;;7.40;3.90;;;;;;;;;;5036904;28;20097;-71
2023/09/14 07:44:22;;;;;;;10.18;4.30;;;;;;;;;;5034840;28;20271;-71
2023/09/14 07:46:47;;;;;;;12.10;4.53;;;;;;;;;;5035789;28;20457;-71
2023/09/14 07:49:12;;;;;;;8.07;4.30;;;;;;;;;;5032242;28;20052;-71
2023/09/14 07:51:37;;;;;;;8.48;4.75;;;;;;;;;;5036970;28;20475;-71
2023/09/14 07:54:03;;;;;;;6.87;4.40;;;;;;;;;;5030982;28;20021;-72
2023/09/14 07:56:28;;;;;;;5.60;2.50;;;;;;;;;;5030787;28;20282;-72
2023/09/14 07:58:53;;;;;;;11.03;3.27;;;;;;;;;;5038771;28;20033;-72
2023/09/14 08:01:19;;;;;;;9.35;3.10;;;;;;;;;;5040571;28;20662;-72
2023/09/14 08:03:44;;;;;;;5.05;2.92;;;;;;;;;;5025007;28;20030;-72
2023/09/14 08:06:10;;;;;;;4.95;1.95;;;;;;;;;;5025371;28;20120;-72
2023/09/14 08:08:35;;;;;;;7.70;3.43;;;;;;;;;;5026394;28;20018;-72
2023/09/14 08:11:00;;;;;;;4.13;2.63;;;;;;;;;;5028927;28;20649;-72
2023/09/14 08:13:25;;;;;;;11.13;3.40;;;;;;;;;;5025744;28;20028;-71
2023/09/14 08:15:51;;;;;;;7.35;2.80;;;;;;;;;;5026145;28;20025;-71
2023/09/14 08:18:18;;;;;;;7.93;3.13;;;;;;;;;;5026623;28;20045;-72
2023/09/14 08:20:43;;;;;;;7.53;2.70;;;;;;;;;;5024661;28;20030;-71
2023/09/14 08:23:10;;;;;;;5.82;3.00;;;;;;;;;;5028424;28;20029;-72
2023/09/14 08:25:43;;;;;;;10.20;3.63;;;;;;;;;;5025465;28;20147;-71
2023/09/14 08:28:19;;;;;;;4.88;3.05;;;;;;;;;;5024816;28;20043;-71
2023/09/14 08:30:44;;;;;;;8.27;3.08;;;;;;;;;;5024249;28;20026;-71
2023/09/14 08:33:10;;;;;;;11.43;3.70;;;;;;;;;;5027678;28;20033;-71
2023/09/14 08:35:36;;;;;;;4.57;1.95;;;;;;;;;;5036282;28;20021;-71
2023/09/14 08:38:03;;;;;;;2.83;2.03;;;;;;;;;;5031495;28;20530;-71
2023/09/14 08:40:29;;;;;;;6.70;3.30;;;;;;;;;;5032077;28;20066;-71
2023/09/14 08:42:55;;;;;;;8.65;3.75;;;;;;;;;;5031172;28;20021;-71
2023/09/14 08:45:24;;;;;;;8.32;3.28;;;;;;;;;;5030223;28;20037;-71
2023/09/14 08:47:50;;;;;;;8.45;4.45;;;;;;;;;;5031040;28;20378;-71
2023/09/14 08:50:15;;;;;;;8.52;3.60;;;;;;;;;;5040244;28;20171;-71
2023/09/14 08:52:42;;;;;;;11.30;4.40;;;;;;;;;;5036223;28;20072;-71
2023/09/14 08:55:08;;;;;;;8.73;4.13;;;;;;;;;;5031250;28;20122;-71
2023/09/14 08:57:34;;;;;;;9.50;5.07;;;;;;;;;;5041786;28;20025;-71
2023/09/14 09:00:00;;;;;;;8.10;4.20;;;;;;;;;;5039316;28;20536;-71
2023/09/14 09:02:27;;;;;;;17.25;5.63;;;;;;;;;;5032740;28;20384;-71
2023/09/14 09:04:52;;;;;;;16.38;5.68;;;;;;;;;;5037717;28;20010;-68
2023/09/14 09:07:17;;;;;;;13.23;6.50;;;;;;;;;;5036714;28;20032;-71
2023/09/14 09:09:43;;;;;;;9.35;4.15;;;;;;;;;;5039209;28;20088;-71
2023/09/14 09:12:08;;;;;;;11.15;5.85;;;;;;;;;;5034501;28;20032;-71
2023/09/14 09:14:37;;;;;;;16.00;7.90;;;;;;;;;;5036783;28;20480;-71
2023/09/14 09:17:02;;;;;;;14.45;8.10;;;;;;;;;;5039425;28;20367;-71
2023/09/14 09:19:28;;;;;;;15.35;7.90;;;;;;;;;;5039421;28;20100;-71
2023/09/14 09:21:53;;;;;;;18.13;7.45;;;;;;;;;;5036319;28;20032;-71
2023/09/14 09:24:25;;;;;;;12.57;7.18;;;;;;;;;;5037544;28;20059;-71
2023/09/14 09:26:50;;;;;;;13.85;7.03;;;;;;;;;;5036232;28;20104;-71
2023/09/14 09:29:19;;;;;;;14.82;7.53;;;;;;;;;;5038729;28;20105;-71
2023/09/14 09:31:45;;;;;;;12.65;6.95;;;;;;;;;;5034939;28;20017;-71
2023/09/14 09:34:13;;;;;;;17.33;7.10;;;;;;;;;;5027999;28;20026;-71
2023/09/14 09:36:39;;;;;;;12.70;7.20;;;;;;;;;;5025976;28;20017;-71
2023/09/14 09:39:05;;;;;;;10.50;5.63;;;;;;;;;;5019853;28;20680;-71
2023/09/14 09:41:31;;;;;;;10.57;6.03;;;;;;;;;;5036027;28;20108;-71
2023/09/14 09:43:56;;;;;;;12.93;6.32;;;;;;;;;;5036199;28;20025;-71
2023/09/14 09:46:22;;;;;;;11.93;6.60;;;;;;;;;;5031877;28;20032;-72
2023/09/14 09:48:47;;;;;;;10.70;6.68;;;;;;;;;;5035388;28;20278;-71
2023/09/14 09:51:12;;;;;;;12.63;5.83;;;;;;;;;;5025194;28;20029;-71
2023/09/14 09:53:37;;;;;;;14.77;5.93;;;;;;;;;;5026737;28;20256;-71
2023/09/14 09:56:03;;;;;;;10.75;6.50;;;;;;;;;;5026516;28;20021;-71
2023/09/14 09:58:35;;;;;;;11.25;6.60;;;;;;;;;;5031579;28;20104;-71
2023/09/14 10:01:00;;;;;;;10.00;5.55;;;;;;;;;;5033268;28;20036;-71
2023/09/14 10:03:25;;;;;;;12.40;7.10;;;;;;;;;;5033078;28;20029;-71
2023/09/14 10:05:51;;;;;;;13.03;8.07;;;;;;;;;;5028291;28;20476;-71
2023/09/14 10:08:20;;;;;;;11.80;8.20;;;;;;;;;;5024772;28;20116;-71
2023/09/14 10:10:53;;;;;;;13.40;6.75;;;;;;;;;;5026461;28;20487;-71
2023/09/14 10:13:22;;;;;;;13.27;7.28;;;;;;;;;;5034705;28;20029;-71
2023/09/14 10:15:47;;;;;;;15.23;7.28;;;;;;;;;;5039961;28;20036;-71
2023/09/14 10:18:13;;;;;;;11.27;6.85;;;;;;;;;;5033988;28;20025;-71
2023/09/14 10:20:39;;;;;;;16.80;8.35;;;;;;;;;;5034933;28;20095;-71
2023/09/14 10:23:06;;;;;;;15.02;7.30;;;;;;;;;;5032338;28;20044;-71
2023/09/14 10:25:32;;;;;;;12.90;7.53;;;;;;;;;;5040308;28;20129;-71
2023/09/14 10:27:58;;;;;;;10.80;6.22;;;;;;;;;;5035217;28;20088;-71
2023/09/14 10:30:24;;;;;;;13.45;8.23;;;;;;;;;;5033458;28;20379;-71
2023/09/14 10:32:52;;;;;;;13.88;8.40;;;;;;;;;;5033394;28;20104;-71
2023/09/14 10:35:17;;;;;;;12.43;7.22;;;;;;;;;;5022565;28;20047;-71
2023/09/14 10:37:44;;;;;;;11.07;7.25;;;;;;;;;;5026055;28;20543;-71
2023/09/14 10:40:10;;;;;;;12.15;6.78;;;;;;;;;;5036472;28;20033;-71
2023/09/14 10:42:35;;;;;;;15.15;7.03;;;;;;;;;;5040396;28;20092;-71
2023/09/14 10:45:01;;;;;;;12.80;6.10;;;;;;;;;;5030750;28;20116;-72
2023/09/14 10:47:31;;;;;;;12.18;6.72;;;;;;;;;;5037520;28;20034;-71
2023/09/14 10:49:56;;;;;;;10.55;7.30;;;;;;;;;;5035595;28;20017;-71
2023/09/14 10:52:25;;;;;;;13.68;6.72;;;;;;;;;;5033679;28;20692;-71
2023/09/14 10:54:50;;;;;;;11.40;5.85;;;;;;;;;;5036338;28;20083;-71
2023/09/14 10:57:22;;;;;;;13.43;6.85;;;;;;;;;;5030648;28;20026;-72
2023/09/14 10:59:49;;;;;;;6.55;4.38;;;;;;;;;;5032334;28;20021;-71
2023/09/14 11:02:33;;;;;;;9.25;4.32;;;;;;;;;;5029093;28;20101;-71
2023/09/14 11:05:14;;;;;;;6.20;3.63;;;;;;;;;;5035810;28;20013;-71
2023/09/14 11:07:40;;;;;;;7.53;4.30;;;;;;;;;;5037450;28;20071;-72
2023/09/14 11:10:09;;;;;;;9.20;5.03;;;;;;;;;;5032909;28;20025;-72
2023/09/14 11:12:35;;;;;;;8.88;4.15;;;;;;;;;;5039672;28;20029;-72
2023/09/14 11:15:15;;;;;;;9.90;4.82;;;;;;;;;;5036913;28;20024;-72
2023/09/14 11:17:41;;;;;;;6.75;4.80;;;;;;;;;;5037053;28;20036;-72
2023/09/14 11:20:27;;;;;;;7.28;4.18;;;;;;;;;;5041046;28;20029;-72
2023/09/14 11:23:00;;;;;;;9.55;5.50;;;;;;;;;;5037150;28;20491;-72
2023/09/14 11:25:26;;;;;;;8.70;4.43;;;;;;;;;;5040932;28;20037;-71
2023/09/14 11:27:51;;;;;;;7.32;4.70;;;;;;;;;;5038687;28;20017;-71
2023/09/14 11:30:17;;;;;;;6.97;4.40;;;;;;;;;;5036794;28;20025;-72
2023/09/14 11:32:44;;;;;;;5.65;3.45;;;;;;;;;;5033862;28;20498;-72
2023/09/14 11:35:09;;;;;;;6.18;3.50;;;;;;;;;;5036034;28;20051;-72
2023/09/14 11:37:35;;;;;;;9.05;5.20;;;;;;;;;;5042893;28;20370;-72
2023/09/14 11:40:01;;;;;;;9.48;4.65;;;;;;;;;;5037185;28;20380;-72
2023/09/14 11:42:26;;;;;;;10.68;5.35;;;;;;;;;;5041489;28;20083;-72
2023/09/14 11:44:53;;;;;;;6.22;3.80;;;;;;;;;;5034568;28;20020;-72
2023/09/14 11:47:18;;;;;;;6.45;4.07;;;;;;;;;;5040164;28;20075;-72
2023/09/14 11:49:47;;;;;;;9.68;4.90;;;;;;;;;;5036227;28;20477;-72
2023/09/14 11:52:15;;;;;;;10.27;4.90;;;;;;;;;;5033327;28;20017;-71
2023/09/14 11:54:45;;;;;;;11.85;6.35;;;;;;;;;;5030840;28;20025;-72
2023/09/14 11:57:12;;;;;;;14.23;6.53;;;;;;;;;;5028376;28;20025;-71
2023/09/14 11:59:37;;;;;;;10.43;5.22;;;;;;;;;;5035065;28;20519;-72
2023/09/14 12:02:03;;;;;;;5.85;3.70;;;;;;;;;;5036621;28;20071;-71
2023/09/14 12:04:29;;;;;;;7.28;3.95;;;;;;;;;;5034665;28;20492;-72
2023/09/14 12:06:55;;;;;;;7.50;4.70;;;;;;;;;;5037873;28;20005;-72
2023/09/14 12:09:33;;;;;;;10.00;4.43;;;;;;;;;;5040031;28;20104;-72
2023/09/14 12:11:58;;;;;;;8.43;4.40;;;;;;;;;;5037303;28;20025;-72
2023/09/14 12:14:32;;;;;;;9.90;5.17;;;;;;;;;;5030346;28;20021;-72
2023/09/14 12:16:57;;;;;;;9.07;4.63;;;;;;;;;;5038139;28;20310;-72
2023/09/14 12:19:22;;;;;;;8.30;4.40;;;;;;;;;;5034854;28;20099;-72
2023/09/14 12:21:48;;;;;;;8.37;5.97;;;;;;;;;;5034173;28;20288;-72
2023/09/14 12:24:13;;;;;;;5.63;4.10;;;;;;;;;;5035019;28;20013;-72
2023/09/14 12:26:38;;;;;;;8.67;4.30;;;;;;;;;;5037215;28;20054;-72
2023/09/14 12:29:03;;;;;;;14.15;4.88;;;;;;;;;;5039380;28;20268;-72
2023/09/14 12:31:31;;;;;;;8.32;4.47;;;;;;;;;;5036223;28;20028;-72
2023/09/14 12:33:58;;;;;;;10.90;5.00;;;;;;;;;;5035119;28;20055;-72
2023/09/14 12:36:23;;;;;;;6.25;4.10;;;;;;;;;;5038511;28;20070;-72
2023/09/14 12:38:48;;;;;;;7.50;4.75;;;;;;;;;;5032236;28;20108;-72
2023/09/14 12:41:14;;;;;;;6.07;4.30;;;;;;;;;;5033685;28;20028;-72
2023/09/14 12:43:39;;;;;;;10.40;4.25;;;;;;;;;;5037632;28;20061;-72
2023/09/14 12:46:05;;;;;;;9.25;4.45;;;;;;;;;;5038868;28;20379;-72
2023/09/14 12:48:30;;;;;;;8.30;4.33;;;;;;;;;;5035619;28;20013;-72
2023/09/14 12:50:56;;;;;;;10.18;4.78;;;;;;;;;;5040058;28;20252;-70
2023/09/14 12:53:23;;;;;;;7.72;4.47;;;;;;;;;;5036718;28;20022;-73
2023/09/14 12:55:48;;;;;;;7.78;4.35;;;;;;;;;;5037191;28;20064;-73
2023/09/14 12:58:19;;;;;;;7.05;4.63;;;;;;;;;;5037929;28;20072;-73
2023/09/14 13:00:45;;;;;;;9.10;5.10;;;;;;;;;;5030973;28;20028;-72
2023/09/14 13:03:12;;;;;;;7.25;3.78;;;;;;;;;;5026337;28;20365;-73
2023/09/14 13:05:37;;;;;;;6.85;4.13;;;;;;;;;;5030820;28;20029;-72
2023/09/14 13:08:04;;;;;;;14.88;5.03;;;;;;;;;;5030704;28;20060;-72
2023/09/14 13:10:33;;;;;;;9.50;4.93;;;;;;;;;;5039186;28;20018;-72
2023/09/14 13:13:10;;;;;;;7.95;5.15;;;;;;;;;;5038602;28;20395;-73
2023/09/14 13:15:38;;;;;;;7.10;5.05;;;;;;;;;;5034296;28;20025;-72
2023/09/14 13:18:05;;;;;;;10.07;4.63;;;;;;;;;;5032877;28;20029;-72
2023/09/14 13:20:32;;;;;;;8.02;3.97;;;;;;;;;;5031014;28;20036;-73
2023/09/14 13:22:57;;;;;;;7.68;4.55;;;;;;;;;;5033191;28;20029;-72
2023/09/14 13:25:26;;;;;;;8.93;4.25;;;;;;;;;;5037160;28;20495;-73
2023/09/14 13:27:52;;;;;;;7.38;4.57;;;;;;;;;;5036712;28;20116;-72
2023/09/14 13:30:17;;;;;;;10.25;5.20;;;;;;;;;;5035065;28;20020;-73
2023/09/14 13:32:42;;;;;;;8.37;4.47;;;;;;;;;;5028689;28;20020;-73
2023/09/14 13:35:08;;;;;;;8.40;5.05;;;;;;;;;;5034156;28;20283;-73
2023/09/14 13:37:34;;;;;;;10.35;4.30;;;;;;;;;;5032810;28;20024;-73
2023/09/14 13:39:59;;;;;;;6.68;4.63;;;;;;;;;;5035389;28;20387;-73
2023/09/14 13:42:25;;;;;;;7.60;4.83;;;;;;;;;;5033487;28;20049;-73
2023/09/14 13:44:50;;;;;;;6.67;4.63;;;;;;;;;;5033556;28;20797;-72
2023/09/14 13:47:16;;;;;;;7.80;4.23;;;;;;;;;;5030173;28;20268;-73
2023/09/14 13:49:41;;;;;;;13.23;5.70;;;;;;;;;;5030576;28;20658;-73
2023/09/14 13:52:06;;;;;;;9.47;4.47;;;;;;;;;;5029365;28;20018;-73
2023/09/14 13:54:32;;;;;;;10.83;6.13;;;;;;;;;;5027709;28;20056;-72
2023/09/14 13:56:57;;;;;;;13.10;6.30;;;;;;;;;;5030673;28;20347;-73
2023/09/14 13:59:25;;;;;;;8.83;5.87;;;;;;;;;;5030174;28;20072;-73
2023/09/14 14:01:50;;;;;;;9.15;5.90;;;;;;;;;;5027239;28;20029;-73
2023/09/14 14:04:15;;;;;;;9.02;5.90;;;;;;;;;;5029569;28;20024;-73
2023/09/14 14:06:41;;;;;;;8.73;5.57;;;;;;;;;;5030307;28;20021;-72
2023/09/14 14:09:07;;;;;;;7.43;4.77;;;;;;;;;;5029092;28;20036;-73
2023/09/14 14:11:32;;;;;;;12.18;5.95;;;;;;;;;;5029780;28;20018;-72
2023/09/14 14:13:58;;;;;;;9.20;5.57;;;;;;;;;;5030142;28;20024;-73
2023/09/14 14:16:23;;;;;;;9.77;6.30;;;;;;;;;;5029517;28;20275;-72
2023/09/14 14:18:48;;;;;;;10.48;5.85;;;;;;;;;;5030210;28;20024;-72
2023/09/14 14:21:13;;;;;;;8.80;5.37;;;;;;;;;;5030462;28;20071;-72
2023/09/14 14:23:38;;;;;;;12.23;5.47;;;;;;;;;;5029247;28;20210;-73
2023/09/14 14:26:04;;;;;;;10.67;6.83;;;;;;;;;;5027562;28;20021;-73
2023/09/14 14:28:29;;;;;;;9.43;5.53;;;;;;;;;;5031761;28;20044;-73